sensor_id;sensor_type;location;lat;lon;timestamp;pressure;altitude;pressure_sealevel;temperature
22828;BMP180;11580;52.562;13.418;2023-05-29T00:00:52;101167.00;;;17.30
22828;BMP180;11580;52.562;13.418;2023-05-29T00:03:21;101168.00;;;17.20
22828;BMP180;11580;52.562;13.418;2023-05-29T00:05:48;101164.00;;;17.10
22828;BMP180;11580;52.562;13.418;2023-05-29T00:08:16;101164.00;;;17.10
22828;BMP180;11580;52.562;13.418;2023-05-29T00:10:43;101165.00;;;17.10
22828;BMP180;11580;52.562;13.418;2023-05-29T00:13:10;101164.00;;;17.00
22828;BMP180;11580;52.562;13.418;2023-05-29T00:15:37;101170.00;;;17.00
22828;BMP180;11580;52.562;13.418;2023-05-29T00:18:05;101170.00;;;17.00
22828;BMP180;11580;52.562;13.418;2023-05-29T00:20:33;101167.00;;;17.00
22828;BMP180;11580;52.562;13.418;2023-05-29T00:23:01;101168.00;;;16.90
22828;BMP180;11580;52.562;13.418;2023-05-29T00:25:30;101177.00;;;16.90
22828;BMP180;11580;52.562;13.418;2023-05-29T00:27:57;101159.00;;;16.90
22828;BMP180;11580;52.562;13.418;2023-05-29T00:30:24;101161.00;;;16.80
22828;BMP180;11580;52.562;13.418;2023-05-29T00:32:51;101164.00;;;16.80
22828;BMP180;11580;52.562;13.418;2023-05-29T00:35:20;101162.00;;;16.70
22828;BMP180;11580;52.562;13.418;2023-05-29T00:37:48;101164.00;;;16.70
22828;BMP180;11580;52.562;13.418;2023-05-29T00:40:16;101157.00;;;16.70
22828;BMP180;11580;52.562;13.418;2023-05-29T00:42:43;101166.00;;;16.60
22828;BMP180;11580;52.562;13.418;2023-05-29T00:45:10;101163.00;;;16.60
22828;BMP180;11580;52.562;13.418;2023-05-29T00:47:41;101161.00;;;16.60
22828;BMP180;11580;52.562;13.418;2023-05-29T00:50:10;101163.00;;;16.60
22828;BMP180;11580;52.562;13.418;2023-05-29T00:52:40;101159.00;;;16.50
22828;BMP180;11580;52.562;13.418;2023-05-29T00:55:10;101158.00;;;16.50
22828;BMP180;11580;52.562;13.418;2023-05-29T00:57:38;101160.00;;;16.40
22828;BMP180;11580;52.562;13.418;2023-05-29T01:00:07;101175.00;;;16.40
22828;BMP180;11580;52.562;13.418;2023-05-29T01:02:37;101167.00;;;16.40
22828;BMP180;11580;52.562;13.418;2023-05-29T01:05:05;101161.00;;;16.30
22828;BMP180;11580;52.562;13.418;2023-05-29T01:07:33;101168.00;;;16.30
22828;BMP180;11580;52.562;13.418;2023-05-29T01:10:00;101170.00;;;16.30
22828;BMP180;11580;52.562;13.418;2023-05-29T01:12:38;101162.00;;;16.30
22828;BMP180;11580;52.562;13.418;2023-05-29T01:15:21;101161.00;;;16.30
22828;BMP180;11580;52.562;13.418;2023-05-29T01:18:23;101165.00;;;16.20
22828;BMP180;11580;52.562;13.418;2023-05-29T01:21:03;101171.00;;;16.20
22828;BMP180;11580;52.562;13.418;2023-05-29T01:24:13;101178.00;;;16.20
22828;BMP180;11580;52.562;13.418;2023-05-29T01:26:51;101173.00;;;16.20
22828;BMP180;11580;52.562;13.418;2023-05-29T01:29:22;101173.00;;;16.20
22828;BMP180;11580;52.562;13.418;2023-05-29T01:31:51;101136.00;;;16.10
22828;BMP180;11580;52.562;13.418;2023-05-29T01:34:20;101182.00;;;16.10
22828;BMP180;11580;52.562;13.418;2023-05-29T01:36:47;101177.00;;;16.10
22828;BMP180;11580;52.562;13.418;2023-05-29T01:39:15;101173.00;;;16.10
22828;BMP180;11580;52.562;13.418;2023-05-29T01:41:46;101171.00;;;16.10
22828;BMP180;11580;52.562;13.418;2023-05-29T01:44:15;101169.00;;;16.00
22828;BMP180;11580;52.562;13.418;2023-05-29T01:46:46;101169.00;;;16.00
22828;BMP180;11580;52.562;13.418;2023-05-29T01:49:15;101172.00;;;16.00
22828;BMP180;11580;52.562;13.418;2023-05-29T01:51:44;101169.00;;;15.90
22828;BMP180;11580;52.562;13.418;2023-05-29T01:54:11;101176.00;;;15.90
22828;BMP180;11580;52.562;13.418;2023-05-29T01:56:39;101167.00;;;15.90
22828;BMP180;11580;52.562;13.418;2023-05-29T01:59:09;101177.00;;;15.90
22828;BMP180;11580;52.562;13.418;2023-05-29T02:01:39;101171.00;;;15.90
22828;BMP180;11580;52.562;13.418;2023-05-29T02:04:06;101170.00;;;15.90
22828;BMP180;11580;52.562;13.418;2023-05-29T02:06:34;101175.00;;;15.90
22828;BMP180;11580;52.562;13.418;2023-05-29T02:09:01;101179.00;;;15.80
22828;BMP180;11580;52.562;13.418;2023-05-29T02:11:28;101180.00;;;15.80
22828;BMP180;11580;52.562;13.418;2023-05-29T02:13:56;101181.00;;;15.80
22828;BMP180;11580;52.562;13.418;2023-05-29T02:16:24;101172.00;;;15.80
22828;BMP180;11580;52.562;13.418;2023-05-29T02:18:53;101179.00;;;15.70
22828;BMP180;11580;52.562;13.418;2023-05-29T02:21:20;101179.00;;;15.80
22828;BMP180;11580;52.562;13.418;2023-05-29T02:23:48;101171.00;;;15.70
22828;BMP180;11580;52.562;13.418;2023-05-29T02:26:16;101176.00;;;15.70
22828;BMP180;11580;52.562;13.418;2023-05-29T02:28:43;101175.00;;;15.70
22828;BMP180;11580;52.562;13.418;2023-05-29T02:31:10;101176.00;;;15.70
22828;BMP180;11580;52.562;13.418;2023-05-29T02:33:39;101179.00;;;15.60
22828;BMP180;11580;52.562;13.418;2023-05-29T02:36:07;101178.00;;;15.60
22828;BMP180;11580;52.562;13.418;2023-05-29T02:38:37;101179.00;;;15.60
22828;BMP180;11580;52.562;13.418;2023-05-29T02:41:06;101181.00;;;15.60
22828;BMP180;11580;52.562;13.418;2023-05-29T02:43:33;101183.00;;;15.60
22828;BMP180;11580;52.562;13.418;2023-05-29T02:46:01;101177.00;;;15.50
22828;BMP180;11580;52.562;13.418;2023-05-29T02:48:28;101180.00;;;15.50
22828;BMP180;11580;52.562;13.418;2023-05-29T02:50:56;101177.00;;;15.50
22828;BMP180;11580;52.562;13.418;2023-05-29T02:53:24;101183.00;;;15.50
22828;BMP180;11580;52.562;13.418;2023-05-29T02:55:51;101177.00;;;15.50
22828;BMP180;11580;52.562;13.418;2023-05-29T02:58:21;101184.00;;;15.40
22828;BMP180;11580;52.562;13.418;2023-05-29T03:00:48;101183.00;;;15.40
22828;BMP180;11580;52.562;13.418;2023-05-29T03:03:16;101185.00;;;15.40
22828;BMP180;11580;52.562;13.418;2023-05-29T03:05:43;101188.00;;;15.40
22828;BMP180;11580;52.562;13.418;2023-05-29T03:08:13;101190.00;;;15.40
22828;BMP180;11580;52.562;13.418;2023-05-29T03:10:42;101193.00;;;15.40
22828;BMP180;11580;52.562;13.418;2023-05-29T03:13:10;101202.00;;;15.40
22828;BMP180;11580;52.562;13.418;2023-05-29T03:15:44;101194.00;;;15.40
22828;BMP180;11580;52.562;13.418;2023-05-29T03:18:12;101197.00;;;15.50
22828;BMP180;11580;52.562;13.418;2023-05-29T03:20:39;101199.00;;;15.60
22828;BMP180;11580;52.562;13.418;2023-05-29T03:23:07;101193.00;;;15.60
22828;BMP180;11580;52.562;13.418;2023-05-29T03:25:37;101198.00;;;15.70
22828;BMP180;11580;52.562;13.418;2023-05-29T03:28:04;101200.00;;;15.80
22828;BMP180;11580;52.562;13.418;2023-05-29T03:30:31;101191.00;;;15.90
22828;BMP180;11580;52.562;13.418;2023-05-29T03:32:59;101186.00;;;16.00
22828;BMP180;11580;52.562;13.418;2023-05-29T03:35:42;101195.00;;;16.20
22828;BMP180;11580;52.562;13.418;2023-05-29T03:38:10;101208.00;;;16.30
22828;BMP180;11580;52.562;13.418;2023-05-29T03:40:39;101200.00;;;16.50
22828;BMP180;11580;52.562;13.418;2023-05-29T03:43:07;101207.00;;;16.70
22828;BMP180;11580;52.562;13.418;2023-05-29T03:45:34;101201.00;;;16.90
22828;BMP180;11580;52.562;13.418;2023-05-29T03:48:01;101210.00;;;17.00
22828;BMP180;11580;52.562;13.418;2023-05-29T03:50:29;101198.00;;;17.10
22828;BMP180;11580;52.562;13.418;2023-05-29T03:52:57;101207.00;;;17.30
22828;BMP180;11580;52.562;13.418;2023-05-29T03:55:26;101214.00;;;17.50
22828;BMP180;11580;52.562;13.418;2023-05-29T03:57:55;101179.00;;;17.70
22828;BMP180;11580;52.562;13.418;2023-05-29T04:00:22;101213.00;;;17.80
22828;BMP180;11580;52.562;13.418;2023-05-29T04:02:51;101212.00;;;18.00
22828;BMP180;11580;52.562;13.418;2023-05-29T04:05:18;101214.00;;;18.10
22828;BMP180;11580;52.562;13.418;2023-05-29T04:07:46;101215.00;;;18.30
22828;BMP180;11580;52.562;13.418;2023-05-29T04:10:14;101220.00;;;18.50
22828;BMP180;11580;52.562;13.418;2023-05-29T04:12:42;101224.00;;;18.70
22828;BMP180;11580;52.562;13.418;2023-05-29T04:15:10;101214.00;;;19.00
22828;BMP180;11580;52.562;13.418;2023-05-29T04:17:38;101227.00;;;19.40
22828;BMP180;11580;52.562;13.418;2023-05-29T04:20:07;101229.00;;;19.80
22828;BMP180;11580;52.562;13.418;2023-05-29T04:22:35;101231.00;;;20.20
22828;BMP180;11580;52.562;13.418;2023-05-29T04:25:03;101237.00;;;20.50
22828;BMP180;11580;52.562;13.418;2023-05-29T04:27:31;101249.00;;;20.80
22828;BMP180;11580;52.562;13.418;2023-05-29T04:30:05;101247.00;;;20.90
22828;BMP180;11580;52.562;13.418;2023-05-29T04:32:37;101240.00;;;21.00
22828;BMP180;11580;52.562;13.418;2023-05-29T04:35:07;101243.00;;;21.10
22828;BMP180;11580;52.562;13.418;2023-05-29T04:37:40;101244.00;;;21.20
22828;BMP180;11580;52.562;13.418;2023-05-29T04:40:11;101249.00;;;21.20
22828;BMP180;11580;52.562;13.418;2023-05-29T04:42:40;101245.00;;;21.10
22828;BMP180;11580;52.562;13.418;2023-05-29T04:45:08;101246.00;;;21.00
22828;BMP180;11580;52.562;13.418;2023-05-29T04:47:38;101250.00;;;21.00
22828;BMP180;11580;52.562;13.418;2023-05-29T04:50:10;101253.00;;;21.10
22828;BMP180;11580;52.562;13.418;2023-05-29T04:52:39;101252.00;;;21.20
22828;BMP180;11580;52.562;13.418;2023-05-29T04:55:09;101258.00;;;21.20
22828;BMP180;11580;52.562;13.418;2023-05-29T04:57:38;101256.00;;;21.10
22828;BMP180;11580;52.562;13.418;2023-05-29T05:00:09;101263.00;;;21.00
22828;BMP180;11580;52.562;13.418;2023-05-29T05:02:41;101258.00;;;20.80
22828;BMP180;11580;52.562;13.418;2023-05-29T05:05:09;101257.00;;;20.70
22828;BMP180;11580;52.562;13.418;2023-05-29T05:07:37;101256.00;;;20.60
22828;BMP180;11580;52.562;13.418;2023-05-29T05:10:07;101249.00;;;20.50
22828;BMP180;11580;52.562;13.418;2023-05-29T05:12:35;101252.00;;;20.50
22828;BMP180;11580;52.562;13.418;2023-05-29T05:15:03;101255.00;;;20.50
22828;BMP180;11580;52.562;13.418;2023-05-29T05:17:33;101253.00;;;20.50
22828;BMP180;11580;52.562;13.418;2023-05-29T05:20:01;101252.00;;;20.50
22828;BMP180;11580;52.562;13.418;2023-05-29T05:22:32;101264.00;;;20.60
22828;BMP180;11580;52.562;13.418;2023-05-29T05:24:59;101264.00;;;20.70
22828;BMP180;11580;52.562;13.418;2023-05-29T05:27:28;101255.00;;;20.70
22828;BMP180;11580;52.562;13.418;2023-05-29T05:29:55;101259.00;;;20.80
22828;BMP180;11580;52.562;13.418;2023-05-29T05:32:23;101260.00;;;20.90
22828;BMP180;11580;52.562;13.418;2023-05-29T05:34:57;101259.00;;;20.90
22828;BMP180;11580;52.562;13.418;2023-05-29T05:37:26;101262.00;;;20.90
22828;BMP180;11580;52.562;13.418;2023-05-29T05:39:55;101261.00;;;20.90
22828;BMP180;11580;52.562;13.418;2023-05-29T05:42:24;101261.00;;;20.80
22828;BMP180;11580;52.562;13.418;2023-05-29T05:44:58;101254.00;;;20.80
22828;BMP180;11580;52.562;13.418;2023-05-29T05:47:25;101263.00;;;20.80
22828;BMP180;11580;52.562;13.418;2023-05-29T05:49:53;101262.00;;;20.80
22828;BMP180;11580;52.562;13.418;2023-05-29T05:52:20;101265.00;;;20.70
22828;BMP180;11580;52.562;13.418;2023-05-29T05:54:49;101268.00;;;20.70
22828;BMP180;11580;52.562;13.418;2023-05-29T05:57:17;101273.00;;;20.60
22828;BMP180;11580;52.562;13.418;2023-05-29T05:59:45;101277.00;;;20.60
22828;BMP180;11580;52.562;13.418;2023-05-29T06:02:13;101278.00;;;20.60
22828;BMP180;11580;52.562;13.418;2023-05-29T06:04:40;101284.00;;;20.60
22828;BMP180;11580;52.562;13.418;2023-05-29T06:07:09;101285.00;;;20.60
22828;BMP180;11580;52.562;13.418;2023-05-29T06:09:37;101285.00;;;20.70
22828;BMP180;11580;52.562;13.418;2023-05-29T06:12:08;101278.00;;;20.80
22828;BMP180;11580;52.562;13.418;2023-05-29T06:14:40;101274.00;;;20.90
22828;BMP180;11580;52.562;13.418;2023-05-29T06:17:07;101294.00;;;21.10
22828;BMP180;11580;52.562;13.418;2023-05-29T06:19:34;101289.00;;;21.20
22828;BMP180;11580;52.562;13.418;2023-05-29T06:22:01;101296.00;;;21.40
22828;BMP180;11580;52.562;13.418;2023-05-29T06:24:32;101297.00;;;21.50
22828;BMP180;11580;52.562;13.418;2023-05-29T06:26:59;101300.00;;;21.60
22828;BMP180;11580;52.562;13.418;2023-05-29T06:29:28;101302.00;;;21.70
22828;BMP180;11580;52.562;13.418;2023-05-29T06:31:56;101309.00;;;21.70
22828;BMP180;11580;52.562;13.418;2023-05-29T06:34:23;101308.00;;;21.70
22828;BMP180;11580;52.562;13.418;2023-05-29T06:36:50;101308.00;;;21.70
22828;BMP180;11580;52.562;13.418;2023-05-29T06:39:17;101306.00;;;21.70
22828;BMP180;11580;52.562;13.418;2023-05-29T06:41:46;101321.00;;;21.80
22828;BMP180;11580;52.562;13.418;2023-05-29T06:44:17;101301.00;;;21.80
22828;BMP180;11580;52.562;13.418;2023-05-29T06:46:46;101311.00;;;21.90
22828;BMP180;11580;52.562;13.418;2023-05-29T06:49:13;101313.00;;;22.00
22828;BMP180;11580;52.562;13.418;2023-05-29T06:51:41;101313.00;;;22.10
22828;BMP180;11580;52.562;13.418;2023-05-29T06:54:26;101319.00;;;22.10
22828;BMP180;11580;52.562;13.418;2023-05-29T06:56:54;101311.00;;;22.20
22828;BMP180;11580;52.562;13.418;2023-05-29T06:59:21;101321.00;;;22.10
22828;BMP180;11580;52.562;13.418;2023-05-29T07:01:49;101320.00;;;22.10
22828;BMP180;11580;52.562;13.418;2023-05-29T07:04:17;101326.00;;;22.10
22828;BMP180;11580;52.562;13.418;2023-05-29T07:06:44;101325.00;;;22.10
22828;BMP180;11580;52.562;13.418;2023-05-29T07:09:11;101318.00;;;22.10
22828;BMP180;11580;52.562;13.418;2023-05-29T07:11:38;101324.00;;;22.10
22828;BMP180;11580;52.562;13.418;2023-05-29T07:14:06;101337.00;;;22.20
22828;BMP180;11580;52.562;13.418;2023-05-29T07:16:34;101333.00;;;22.20
22828;BMP180;11580;52.562;13.418;2023-05-29T07:19:06;101339.00;;;22.30
22828;BMP180;11580;52.562;13.418;2023-05-29T07:21:37;101344.00;;;22.30
22828;BMP180;11580;52.562;13.418;2023-05-29T07:24:05;101341.00;;;22.30
22828;BMP180;11580;52.562;13.418;2023-05-29T07:26:35;101335.00;;;22.30
22828;BMP180;11580;52.562;13.418;2023-05-29T07:29:03;101343.00;;;22.30
22828;BMP180;11580;52.562;13.418;2023-05-29T07:31:31;101336.00;;;22.40
22828;BMP180;11580;52.562;13.418;2023-05-29T07:33:58;101330.00;;;22.40
22828;BMP180;11580;52.562;13.418;2023-05-29T07:36:30;101334.00;;;22.60
22828;BMP180;11580;52.562;13.418;2023-05-29T07:38:59;101344.00;;;22.70
22828;BMP180;11580;52.562;13.418;2023-05-29T07:41:27;101336.00;;;22.90
22828;BMP180;11580;52.562;13.418;2023-05-29T07:43:55;101342.00;;;23.10
22828;BMP180;11580;52.562;13.418;2023-05-29T07:46:22;101345.00;;;23.30
22828;BMP180;11580;52.562;13.418;2023-05-29T07:48:54;101341.00;;;23.50
22828;BMP180;11580;52.562;13.418;2023-05-29T07:51:21;101360.00;;;23.50
22828;BMP180;11580;52.562;13.418;2023-05-29T07:53:52;101357.00;;;23.60
22828;BMP180;11580;52.562;13.418;2023-05-29T07:56:20;101349.00;;;23.60
22828;BMP180;11580;52.562;13.418;2023-05-29T07:58:47;101357.00;;;23.60
22828;BMP180;11580;52.562;13.418;2023-05-29T08:01:15;101359.00;;;23.60
22828;BMP180;11580;52.562;13.418;2023-05-29T08:03:42;101358.00;;;23.60
22828;BMP180;11580;52.562;13.418;2023-05-29T08:06:15;101358.00;;;23.50
22828;BMP180;11580;52.562;13.418;2023-05-29T08:08:44;101356.00;;;23.50
22828;BMP180;11580;52.562;13.418;2023-05-29T08:11:13;101356.00;;;23.40
22828;BMP180;11580;52.562;13.418;2023-05-29T08:13:40;101365.00;;;23.30
22828;BMP180;11580;52.562;13.418;2023-05-29T08:16:08;101366.00;;;23.30
22828;BMP180;11580;52.562;13.418;2023-05-29T08:18:35;101358.00;;;23.30
22828;BMP180;11580;52.562;13.418;2023-05-29T08:21:03;101344.00;;;23.20
22828;BMP180;11580;52.562;13.418;2023-05-29T08:23:31;101356.00;;;23.20
22828;BMP180;11580;52.562;13.418;2023-05-29T08:25:58;101349.00;;;23.20
22828;BMP180;11580;52.562;13.418;2023-05-29T08:28:26;101352.00;;;23.10
22828;BMP180;11580;52.562;13.418;2023-05-29T08:30:54;101347.00;;;23.10
22828;BMP180;11580;52.562;13.418;2023-05-29T08:33:21;101350.00;;;23.00
22828;BMP180;11580;52.562;13.418;2023-05-29T08:35:48;101343.00;;;23.00
22828;BMP180;11580;52.562;13.418;2023-05-29T08:38:16;101337.00;;;22.90
22828;BMP180;11580;52.562;13.418;2023-05-29T08:40:43;101347.00;;;23.00
22828;BMP180;11580;52.562;13.418;2023-05-29T08:43:15;101344.00;;;22.90
22828;BMP180;11580;52.562;13.418;2023-05-29T08:45:45;101340.00;;;22.90
22828;BMP180;11580;52.562;13.418;2023-05-29T08:48:12;101338.00;;;22.90
22828;BMP180;11580;52.562;13.418;2023-05-29T08:50:44;101333.00;;;22.90
22828;BMP180;11580;52.562;13.418;2023-05-29T08:53:13;101364.00;;;23.00
22828;BMP180;11580;52.562;13.418;2023-05-29T08:55:41;101350.00;;;22.90
22828;BMP180;11580;52.562;13.418;2023-05-29T08:58:09;101349.00;;;23.00
22828;BMP180;11580;52.562;13.418;2023-05-29T09:00:38;101325.00;;;23.00
22828;BMP180;11580;52.562;13.418;2023-05-29T09:03:08;101356.00;;;23.00
22828;BMP180;11580;52.562;13.418;2023-05-29T09:05:35;101341.00;;;22.80
22828;BMP180;11580;52.562;13.418;2023-05-29T09:08:06;101343.00;;;23.00
22828;BMP180;11580;52.562;13.418;2023-05-29T09:10:34;101358.00;;;23.10
22828;BMP180;11580;52.562;13.418;2023-05-29T09:13:02;101364.00;;;23.20
22828;BMP180;11580;52.562;13.418;2023-05-29T09:15:31;101364.00;;;23.30
22828;BMP180;11580;52.562;13.418;2023-05-29T09:17:58;101343.00;;;23.40
22828;BMP180;11580;52.562;13.418;2023-05-29T09:20:27;101344.00;;;23.50
22828;BMP180;11580;52.562;13.418;2023-05-29T09:22:55;101342.00;;;23.60
22828;BMP180;11580;52.562;13.418;2023-05-29T09:25:24;101352.00;;;23.80
22828;BMP180;11580;52.562;13.418;2023-05-29T09:27:55;101351.00;;;24.00
22828;BMP180;11580;52.562;13.418;2023-05-29T09:30:36;101358.00;;;24.30
22828;BMP180;11580;52.562;13.418;2023-05-29T09:33:05;101363.00;;;24.50
22828;BMP180;11580;52.562;13.418;2023-05-29T09:35:36;101374.00;;;24.70
22828;BMP180;11580;52.562;13.418;2023-05-29T09:38:04;101369.00;;;24.90
22828;BMP180;11580;52.562;13.418;2023-05-29T09:40:33;101369.00;;;25.10
22828;BMP180;11580;52.562;13.418;2023-05-29T09:43:05;101369.00;;;25.20
22828;BMP180;11580;52.562;13.418;2023-05-29T09:45:37;101373.00;;;25.30
22828;BMP180;11580;52.562;13.418;2023-05-29T09:48:06;101360.00;;;25.40
22828;BMP180;11580;52.562;13.418;2023-05-29T09:50:35;101368.00;;;25.40
22828;BMP180;11580;52.562;13.418;2023-05-29T09:53:03;101365.00;;;25.40
22828;BMP180;11580;52.562;13.418;2023-05-29T09:55:34;101363.00;;;25.40
22828;BMP180;11580;52.562;13.418;2023-05-29T09:58:02;101369.00;;;25.30
22828;BMP180;11580;52.562;13.418;2023-05-29T10:00:31;101360.00;;;25.30
22828;BMP180;11580;52.562;13.418;2023-05-29T10:02:58;101363.00;;;25.40
22828;BMP180;11580;52.562;13.418;2023-05-29T10:05:25;101355.00;;;25.50
22828;BMP180;11580;52.562;13.418;2023-05-29T10:07:55;101356.00;;;25.50
22828;BMP180;11580;52.562;13.418;2023-05-29T10:10:25;101348.00;;;25.70
22828;BMP180;11580;52.562;13.418;2023-05-29T10:12:54;101356.00;;;25.80
22828;BMP180;11580;52.562;13.418;2023-05-29T10:15:25;101356.00;;;25.90
22828;BMP180;11580;52.562;13.418;2023-05-29T10:18:02;101349.00;;;25.90
22828;BMP180;11580;52.562;13.418;2023-05-29T10:20:33;101357.00;;;25.90
22828;BMP180;11580;52.562;13.418;2023-05-29T10:23:04;101358.00;;;25.90
22828;BMP180;11580;52.562;13.418;2023-05-29T10:25:33;101342.00;;;25.80
22828;BMP180;11580;52.562;13.418;2023-05-29T10:28:03;101355.00;;;25.80
22828;BMP180;11580;52.562;13.418;2023-05-29T10:30:38;101355.00;;;25.80
22828;BMP180;11580;52.562;13.418;2023-05-29T10:33:33;101350.00;;;25.90
22828;BMP180;11580;52.562;13.418;2023-05-29T10:36:13;101349.00;;;25.90
22828;BMP180;11580;52.562;13.418;2023-05-29T10:38:45;101346.00;;;26.00
22828;BMP180;11580;52.562;13.418;2023-05-29T10:41:31;101336.00;;;26.20
22828;BMP180;11580;52.562;13.418;2023-05-29T10:44:01;101357.00;;;26.20
22828;BMP180;11580;52.562;13.418;2023-05-29T10:47:04;101348.00;;;26.20
22828;BMP180;11580;52.562;13.418;2023-05-29T10:49:31;101344.00;;;26.20
22828;BMP180;11580;52.562;13.418;2023-05-29T10:51:59;101346.00;;;26.20
22828;BMP180;11580;52.562;13.418;2023-05-29T10:54:40;101355.00;;;26.20
22828;BMP180;11580;52.562;13.418;2023-05-29T10:57:08;101340.00;;;26.10
22828;BMP180;11580;52.562;13.418;2023-05-29T10:59:36;101344.00;;;26.00
22828;BMP180;11580;52.562;13.418;2023-05-29T11:02:04;101346.00;;;25.80
22828;BMP180;11580;52.562;13.418;2023-05-29T11:04:33;101339.00;;;25.80
22828;BMP180;11580;52.562;13.418;2023-05-29T11:07:00;101340.00;;;25.70
22828;BMP180;11580;52.562;13.418;2023-05-29T11:09:35;101333.00;;;25.70
22828;BMP180;11580;52.562;13.418;2023-05-29T11:12:17;101342.00;;;25.80
22828;BMP180;11580;52.562;13.418;2023-05-29T11:15:04;101337.00;;;25.80
22828;BMP180;11580;52.562;13.418;2023-05-29T11:17:42;101333.00;;;25.80
22828;BMP180;11580;52.562;13.418;2023-05-29T11:20:25;101345.00;;;25.80
22828;BMP180;11580;52.562;13.418;2023-05-29T11:23:02;101336.00;;;25.80
22828;BMP180;11580;52.562;13.418;2023-05-29T11:25:36;101337.00;;;25.70
22828;BMP180;11580;52.562;13.418;2023-05-29T11:28:04;101328.00;;;25.80
22828;BMP180;11580;52.562;13.418;2023-05-29T11:30:45;101333.00;;;25.80
22828;BMP180;11580;52.562;13.418;2023-05-29T11:33:23;101325.00;;;25.90
22828;BMP180;11580;52.562;13.418;2023-05-29T11:35:57;101322.00;;;26.00
22828;BMP180;11580;52.562;13.418;2023-05-29T11:38:25;101327.00;;;26.10
22828;BMP180;11580;52.562;13.418;2023-05-29T11:40:54;101326.00;;;26.30
22828;BMP180;11580;52.562;13.418;2023-05-29T11:43:22;101323.00;;;26.40
22828;BMP180;11580;52.562;13.418;2023-05-29T11:45:49;101335.00;;;26.50
22828;BMP180;11580;52.562;13.418;2023-05-29T11:48:17;101336.00;;;26.70
22828;BMP180;11580;52.562;13.418;2023-05-29T11:50:44;101340.00;;;26.80
22828;BMP180;11580;52.562;13.418;2023-05-29T11:53:11;101335.00;;;26.80
22828;BMP180;11580;52.562;13.418;2023-05-29T11:55:39;101336.00;;;26.90
22828;BMP180;11580;52.562;13.418;2023-05-29T11:58:07;101335.00;;;26.80
22828;BMP180;11580;52.562;13.418;2023-05-29T12:00:37;101335.00;;;26.70
22828;BMP180;11580;52.562;13.418;2023-05-29T12:03:05;101337.00;;;26.60
22828;BMP180;11580;52.562;13.418;2023-05-29T12:05:44;101333.00;;;26.50
22828;BMP180;11580;52.562;13.418;2023-05-29T12:08:12;101317.00;;;26.40
22828;BMP180;11580;52.562;13.418;2023-05-29T12:10:47;101333.00;;;26.30
22828;BMP180;11580;52.562;13.418;2023-05-29T12:13:18;101321.00;;;26.30
22828;BMP180;11580;52.562;13.418;2023-05-29T12:15:47;101322.00;;;26.30
22828;BMP180;11580;52.562;13.418;2023-05-29T12:18:16;101332.00;;;26.30
22828;BMP180;11580;52.562;13.418;2023-05-29T12:20:43;101328.00;;;26.30
22828;BMP180;11580;52.562;13.418;2023-05-29T12:23:10;101314.00;;;26.30
22828;BMP180;11580;52.562;13.418;2023-05-29T12:25:38;101324.00;;;26.20
22828;BMP180;11580;52.562;13.418;2023-05-29T12:28:06;101318.00;;;26.20
22828;BMP180;11580;52.562;13.418;2023-05-29T12:30:38;101313.00;;;26.20
22828;BMP180;11580;52.562;13.418;2023-05-29T12:33:06;101323.00;;;26.10
22828;BMP180;11580;52.562;13.418;2023-05-29T12:35:33;101321.00;;;26.10
22828;BMP180;11580;52.562;13.418;2023-05-29T12:38:04;101313.00;;;26.00
22828;BMP180;11580;52.562;13.418;2023-05-29T12:40:35;101324.00;;;26.00
22828;BMP180;11580;52.562;13.418;2023-05-29T12:43:05;101316.00;;;26.00
22828;BMP180;11580;52.562;13.418;2023-05-29T12:45:34;101318.00;;;26.10
22828;BMP180;11580;52.562;13.418;2023-05-29T12:48:04;101312.00;;;26.20
22828;BMP180;11580;52.562;13.418;2023-05-29T12:50:33;101310.00;;;26.30
22828;BMP180;11580;52.562;13.418;2023-05-29T12:53:03;101313.00;;;26.40
22828;BMP180;11580;52.562;13.418;2023-05-29T12:55:33;101317.00;;;26.40
22828;BMP180;11580;52.562;13.418;2023-05-29T12:58:02;101311.00;;;26.50
22828;BMP180;11580;52.562;13.418;2023-05-29T13:00:30;101317.00;;;26.60
22828;BMP180;11580;52.562;13.418;2023-05-29T13:02:57;101310.00;;;26.60
22828;BMP180;11580;52.562;13.418;2023-05-29T13:05:26;101313.00;;;26.60
22828;BMP180;11580;52.562;13.418;2023-05-29T13:07:54;101309.00;;;26.60
22828;BMP180;11580;52.562;13.418;2023-05-29T13:10:21;101315.00;;;26.50
22828;BMP180;11580;52.562;13.418;2023-05-29T13:12:49;101303.00;;;26.50
22828;BMP180;11580;52.562;13.418;2023-05-29T13:15:20;101301.00;;;26.60
22828;BMP180;11580;52.562;13.418;2023-05-29T13:17:47;101298.00;;;26.70
22828;BMP180;11580;52.562;13.418;2023-05-29T13:20:15;101293.00;;;26.80
22828;BMP180;11580;52.562;13.418;2023-05-29T13:22:48;101299.00;;;26.80
22828;BMP180;11580;52.562;13.418;2023-05-29T13:25:17;101278.00;;;26.90
22828;BMP180;11580;52.562;13.418;2023-05-29T13:27:47;101279.00;;;27.00
22828;BMP180;11580;52.562;13.418;2023-05-29T13:30:15;101284.00;;;27.10
22828;BMP180;11580;52.562;13.418;2023-05-29T13:32:43;101285.00;;;27.20
22828;BMP180;11580;52.562;13.418;2023-05-29T13:35:11;101286.00;;;27.20
22828;BMP180;11580;52.562;13.418;2023-05-29T13:37:39;101293.00;;;27.30
22828;BMP180;11580;52.562;13.418;2023-05-29T13:40:09;101286.00;;;27.30
22828;BMP180;11580;52.562;13.418;2023-05-29T13:42:37;101291.00;;;27.30
22828;BMP180;11580;52.562;13.418;2023-05-29T13:45:06;101289.00;;;27.30
22828;BMP180;11580;52.562;13.418;2023-05-29T13:47:33;101294.00;;;27.30
22828;BMP180;11580;52.562;13.418;2023-05-29T13:50:01;101288.00;;;27.20
22828;BMP180;11580;52.562;13.418;2023-05-29T13:52:28;101292.00;;;27.20
22828;BMP180;11580;52.562;13.418;2023-05-29T13:54:55;101301.00;;;27.10
22828;BMP180;11580;52.562;13.418;2023-05-29T13:57:25;101284.00;;;27.10